Create Custom Reports and Graphics: Custom Report

Latest Observations

Map

15 Minute Data

Lake County North

13 Stations

15 Minute Data | America/Los_Angeles
as of 9/15/19 9:31 PM PDT
Station Date Time Temp (°F) Dew Pt (°F) RH (%) Wind Spd (mph) Wind Dir (°) Wind Gust (mph) Latest Rain (In) Daily Rain (In) Daily Min Temp (°F) Daily Max Temp (°F)
Upper Lake (UPL) 9/15/19 2100 64.5   1.0 59.7   4.9 84 2.9 W | 274 8.9 0.00 0.00 45.0   1.7 80.3   13.5
Scotts Valley (SVL) 9/15/19 2130 64.0   6.5 57.2   10.5 78 1.8 NNW | 334 6.5 0.00 0.00 38.7   1.8 83.2   13.1
High Valley Ridgeline (Brassfield) 9/15/19 2130 61.0   10.0 56.7   12.0 86 10.2 WSW | 246 18.2 0.00 0.00 58.0   11.3 77.9   13.9
Ridgeline Top (Brassfield) 9/15/19 2130 60.8   10.2 - - - - - - - 58.5   9.6 80.9   12.8
Ridgeline Low (Brassfield) 9/15/19 2130 62.7   8.7 - - - - - - - 59.8   2.2 79.0   12.7
High Valley Winery 9/15/19 2130 63.6   7.9 57.0   10.9 79 6.6 WSW | 248 16.8 0.00 0.00 50.0   3.3 81.9   11.7
Kelseyville (KEL) 9/15/19 2130 64.5   0.3 57.3   12.4 76 7.6 WSW | 257 14.7 0.00 0.00 43.0   2.4 82.5   11.2
Kelseyville Remote 9/15/19 0600 44.6   2.0 36.1   6.6 72 - - - - - 44.2   2.1 51.3   5.2
Kelseyville South (SML) 9/15/19 2130 63.9   0.4 57.5   14.8 80 0.0 N | 0 0.0 0.00 0.00 43.2   2.3 81.8   11.8
Bell Hill West (BHR) 9/15/19 2130 64.3   1.9 57.0   14.0 77 1.0 W | 268 4.6 0.00 0.00 47.2   1.8 79.9   12.7
Wight Way 9/15/19 2130 63.4   8.1 57.5   21.3 81 1.5 WNW | 298 4.2 0.00 0.00 41.5   0.1 83.7   14.5
Red Hills (Beckstoffer) 9/15/19 2130 62.3   0.8 56.8   24.4 82 - - - - - 46.8   3.5 82.2   13.9
Red Hills East (2200ft) 9/15/19 2130 61.5   2.5 56.5   22.1 84 4.7 WNW | 287 11.2 0.00 0.00 53.2   1.4 82.8   12.4
Max     64.5 59.7 86 10.2 - 18.2 0.00 0.00 59.8 83.7
Avg     63.0 57.3 81 4.0 - 9.4 0.00 - - -
Min     60.8 56.5 76 0.0 - 0.0 0.00 0.00 38.7 77.9

Lake County South

8 Stations

15 Minute Data | America/Los_Angeles
as of 9/15/19 9:31 PM PDT
Station Date Time Temp (°F) Dew Pt (°F) RH (%) Wind Spd (mph) Wind Dir (°) Wind Gust (mph) Latest Rain (In) Daily Rain (In) Daily Min Temp (°F) Daily Max Temp (°F)
Bella Vista-Middletown West 9/15/19 2130 67.0   8.6 55.4   24.5 66 - - - - - 39.8   6.7 84.2   10.7
Middletown-South 9/15/19 2130 67.7   9.1 55.8   22.7 66 6.5 SW | 224 13.5 0.00 0.00 41.5   5.2 85.6   11.8
Lower Bohn 9/15/19 2130 69.2   11.9 56.4   22.9 64 10.0 W | 264 15.3 0.00 0.00 38.4   5.9 89.1   8.9
Upper Bohn North 9/15/19 2130 68.4   5.6 54.0   24.3 60 2.0 NNW | 330 4.6 0.00 0.00 46.3   7.5 88.8   10.1
Upper Bohn South 9/15/19 2130 70.3   6.4 40.1   27.0 33 2.7 W | 269 7.0 0.00 0.00 47.2   8.2 87.6   11.1
Morgan Valley (HSM) 9/15/19 2130 61.1   13.9 52.9   36.5 74 18.4 W | 279 25.9 0.00 0.00 60.9   9.8 79.5   9.2
Mine Pit North 9/15/19 2130 65.1   6.1 56.1   23.2 73 4.6 S | 186 9.6 - - 60.3   2.5 85.4   10.3
Mine Pit South 9/15/19 2130 64.3   11.8 55.2   28.7 72 10.0 N | 357 15.6 0.00 0.00 59.2   7.6 85.2   10.2
Max     70.3 56.4 74 18.4 - 25.9 0.00 0.00 60.9 89.1
Avg     66.6 53.3 64 7.7 - 13.1 0.00 - - -
Min     61.1 40.1 33 2.0 - 4.6 0.00 0.00 38.4 79.5